sensor_id;sensor_type;location;lat;lon;timestamp;P1;durP1;ratioP1;P2;durP2;ratioP2
74972;SDS011;63529;56.320;43.990;2023-05-19T00:01:39;9.82;;;5.10;;
74972;SDS011;63529;56.320;43.990;2023-05-19T00:04:08;13.65;;;5.43;;
74972;SDS011;63529;56.320;43.990;2023-05-19T00:06:36;45.97;;;8.68;;
74972;SDS011;63529;56.320;43.990;2023-05-19T00:09:12;34.75;;;7.00;;
74972;SDS011;63529;56.320;43.990;2023-05-19T00:11:38;23.90;;;6.30;;
74972;SDS011;63529;56.320;43.990;2023-05-19T00:14:06;22.63;;;6.85;;
74972;SDS011;63529;56.320;43.990;2023-05-19T00:16:34;16.98;;;5.35;;
74972;SDS011;63529;56.320;43.990;2023-05-19T00:19:01;16.67;;;5.60;;
74972;SDS011;63529;56.320;43.990;2023-05-19T00:21:28;14.35;;;5.78;;
74972;SDS011;63529;56.320;43.990;2023-05-19T00:23:55;10.45;;;5.13;;
74972;SDS011;63529;56.320;43.990;2023-05-19T00:26:22;11.07;;;5.50;;
74972;SDS011;63529;56.320;43.990;2023-05-19T00:29:01;11.18;;;4.93;;
74972;SDS011;63529;56.320;43.990;2023-05-19T00:31:27;14.57;;;5.65;;
74972;SDS011;63529;56.320;43.990;2023-05-19T00:33:54;14.85;;;6.10;;
74972;SDS011;63529;56.320;43.990;2023-05-19T00:36:20;13.35;;;5.75;;
74972;SDS011;63529;56.320;43.990;2023-05-19T00:38:46;22.77;;;7.93;;
74972;SDS011;63529;56.320;43.990;2023-05-19T00:41:11;30.27;;;7.70;;
74972;SDS011;63529;56.320;43.990;2023-05-19T00:43:37;19.55;;;7.20;;
74972;SDS011;63529;56.320;43.990;2023-05-19T00:46:03;11.02;;;5.50;;
74972;SDS011;63529;56.320;43.990;2023-05-19T00:48:29;18.27;;;6.63;;
74972;SDS011;63529;56.320;43.990;2023-05-19T00:50:56;14.77;;;5.43;;
74972;SDS011;63529;56.320;43.990;2023-05-19T00:53:26;10.35;;;5.22;;
74972;SDS011;63529;56.320;43.990;2023-05-19T00:55:53;20.13;;;5.95;;
74972;SDS011;63529;56.320;43.990;2023-05-19T00:58:19;11.02;;;4.68;;
74972;SDS011;63529;56.320;43.990;2023-05-19T01:00:49;50.70;;;8.07;;
74972;SDS011;63529;56.320;43.990;2023-05-19T01:03:15;22.65;;;8.77;;
74972;SDS011;63529;56.320;43.990;2023-05-19T01:05:45;24.27;;;10.05;;
74972;SDS011;63529;56.320;43.990;2023-05-19T01:08:12;26.70;;;11.20;;
74972;SDS011;63529;56.320;43.990;2023-05-19T01:10:38;16.95;;;9.93;;
74972;SDS011;63529;56.320;43.990;2023-05-19T01:13:04;20.75;;;11.02;;
74972;SDS011;63529;56.320;43.990;2023-05-19T01:16:07;25.23;;;12.38;;
74972;SDS011;63529;56.320;43.990;2023-05-19T01:18:31;23.45;;;12.57;;
74972;SDS011;63529;56.320;43.990;2023-05-19T01:21:39;28.02;;;14.05;;
74972;SDS011;63529;56.320;43.990;2023-05-19T01:27:55;17.83;;;9.35;;
74972;SDS011;63529;56.320;43.990;2023-05-19T01:30:43;16.55;;;8.93;;
74972;SDS011;63529;56.320;43.990;2023-05-19T01:33:12;15.82;;;10.15;;
74972;SDS011;63529;56.320;43.990;2023-05-19T01:35:40;24.25;;;13.20;;
74972;SDS011;63529;56.320;43.990;2023-05-19T01:38:08;26.20;;;14.73;;
74972;SDS011;63529;56.320;43.990;2023-05-19T01:40:36;35.63;;;16.35;;
74972;SDS011;63529;56.320;43.990;2023-05-19T01:43:04;29.58;;;16.27;;
74972;SDS011;63529;56.320;43.990;2023-05-19T01:45:32;30.17;;;16.40;;
74972;SDS011;63529;56.320;43.990;2023-05-19T01:48:00;30.33;;;15.88;;
74972;SDS011;63529;56.320;43.990;2023-05-19T01:50:27;31.05;;;16.92;;
74972;SDS011;63529;56.320;43.990;2023-05-19T01:52:54;30.58;;;16.75;;
74972;SDS011;63529;56.320;43.990;2023-05-19T01:55:20;29.58;;;16.02;;
74972;SDS011;63529;56.320;43.990;2023-05-19T02:14:01;37.38;;;18.70;;
74972;SDS011;63529;56.320;43.990;2023-05-19T02:19:35;33.20;;;16.48;;
74972;SDS011;63529;56.320;43.990;2023-05-19T02:22:02;27.67;;;16.45;;
74972;SDS011;63529;56.320;43.990;2023-05-19T02:24:28;27.70;;;16.45;;
74972;SDS011;63529;56.320;43.990;2023-05-19T02:26:54;24.50;;;16.10;;
74972;SDS011;63529;56.320;43.990;2023-05-19T02:29:20;27.33;;;17.35;;
74972;SDS011;63529;56.320;43.990;2023-05-19T02:31:46;25.70;;;15.35;;
74972;SDS011;63529;56.320;43.990;2023-05-19T02:34:12;31.85;;;15.10;;
74972;SDS011;63529;56.320;43.990;2023-05-19T02:36:39;27.77;;;14.00;;
74972;SDS011;63529;56.320;43.990;2023-05-19T02:39:10;24.10;;;13.00;;
74972;SDS011;63529;56.320;43.990;2023-05-19T02:41:37;21.38;;;12.57;;
74972;SDS011;63529;56.320;43.990;2023-05-19T02:44:03;22.98;;;12.98;;
74972;SDS011;63529;56.320;43.990;2023-05-19T02:46:30;27.15;;;12.77;;
74972;SDS011;63529;56.320;43.990;2023-05-19T02:48:56;32.72;;;12.50;;
74972;SDS011;63529;56.320;43.990;2023-05-19T02:51:22;24.05;;;10.27;;
74972;SDS011;63529;56.320;43.990;2023-05-19T02:53:48;16.92;;;9.88;;
74972;SDS011;63529;56.320;43.990;2023-05-19T02:56:14;21.25;;;9.45;;
74972;SDS011;63529;56.320;43.990;2023-05-19T02:58:40;14.95;;;9.55;;
74972;SDS011;63529;56.320;43.990;2023-05-19T03:01:08;28.90;;;12.40;;
74972;SDS011;63529;56.320;43.990;2023-05-19T03:03:34;22.42;;;11.60;;
74972;SDS011;63529;56.320;43.990;2023-05-19T03:06:00;26.65;;;12.27;;
74972;SDS011;63529;56.320;43.990;2023-05-19T03:08:26;30.48;;;12.95;;
74972;SDS011;63529;56.320;43.990;2023-05-19T03:10:53;41.17;;;13.52;;
74972;SDS011;63529;56.320;43.990;2023-05-19T03:13:19;19.70;;;12.23;;
74972;SDS011;63529;56.320;43.990;2023-05-19T03:15:45;28.55;;;13.27;;
74972;SDS011;63529;56.320;43.990;2023-05-19T03:18:11;25.95;;;11.75;;
74972;SDS011;63529;56.320;43.990;2023-05-19T03:20:37;17.83;;;11.10;;
74972;SDS011;63529;56.320;43.990;2023-05-19T03:23:04;25.63;;;12.23;;
74972;SDS011;63529;56.320;43.990;2023-05-19T03:25:30;26.38;;;12.82;;
74972;SDS011;63529;56.320;43.990;2023-05-19T03:27:57;23.05;;;12.30;;
74972;SDS011;63529;56.320;43.990;2023-05-19T03:30:23;18.83;;;11.68;;
74972;SDS011;63529;56.320;43.990;2023-05-19T03:33:10;40.20;;;14.15;;
74972;SDS011;63529;56.320;43.990;2023-05-19T03:35:36;36.42;;;13.45;;
74972;SDS011;63529;56.320;43.990;2023-05-19T03:38:03;38.40;;;13.60;;
74972;SDS011;63529;56.320;43.990;2023-05-19T03:40:29;23.60;;;13.40;;
74972;SDS011;63529;56.320;43.990;2023-05-19T03:43:01;23.02;;;13.00;;
74972;SDS011;63529;56.320;43.990;2023-05-19T03:45:28;21.00;;;12.75;;
74972;SDS011;63529;56.320;43.990;2023-05-19T03:47:54;26.95;;;12.75;;
74972;SDS011;63529;56.320;43.990;2023-05-19T03:50:37;24.35;;;12.13;;
74972;SDS011;63529;56.320;43.990;2023-05-19T03:53:13;22.85;;;12.63;;
74972;SDS011;63529;56.320;43.990;2023-05-19T03:55:40;25.33;;;12.23;;
74972;SDS011;63529;56.320;43.990;2023-05-19T03:58:06;23.85;;;12.30;;
74972;SDS011;63529;56.320;43.990;2023-05-19T04:00:32;25.02;;;11.98;;
74972;SDS011;63529;56.320;43.990;2023-05-19T04:02:58;23.52;;;12.63;;
74972;SDS011;63529;56.320;43.990;2023-05-19T04:05:24;31.98;;;13.18;;
74972;SDS011;63529;56.320;43.990;2023-05-19T04:07:52;91.53;;;27.48;;
74972;SDS011;63529;56.320;43.990;2023-05-19T04:10:18;82.75;;;17.75;;
74972;SDS011;63529;56.320;43.990;2023-05-19T04:12:46;37.75;;;14.07;;
74972;SDS011;63529;56.320;43.990;2023-05-19T04:15:15;35.05;;;13.98;;
74972;SDS011;63529;56.320;43.990;2023-05-19T04:17:41;36.63;;;14.32;;
74972;SDS011;63529;56.320;43.990;2023-05-19T04:20:08;38.25;;;14.50;;
74972;SDS011;63529;56.320;43.990;2023-05-19T04:22:34;27.70;;;12.98;;
74972;SDS011;63529;56.320;43.990;2023-05-19T04:25:00;37.47;;;14.45;;
74972;SDS011;63529;56.320;43.990;2023-05-19T04:27:30;36.78;;;13.60;;
74972;SDS011;63529;56.320;43.990;2023-05-19T04:29:57;43.83;;;12.82;;
74972;SDS011;63529;56.320;43.990;2023-05-19T04:32:24;40.50;;;13.07;;
74972;SDS011;63529;56.320;43.990;2023-05-19T04:34:51;24.08;;;11.80;;
74972;SDS011;63529;56.320;43.990;2023-05-19T04:37:22;64.03;;;14.00;;
74972;SDS011;63529;56.320;43.990;2023-05-19T04:39:49;29.08;;;11.45;;
74972;SDS011;63529;56.320;43.990;2023-05-19T04:42:17;23.73;;;11.48;;
74972;SDS011;63529;56.320;43.990;2023-05-19T04:44:44;23.05;;;11.25;;
74972;SDS011;63529;56.320;43.990;2023-05-19T04:47:11;37.85;;;11.85;;
74972;SDS011;63529;56.320;43.990;2023-05-19T04:49:37;24.15;;;10.48;;
74972;SDS011;63529;56.320;43.990;2023-05-19T04:52:07;28.83;;;10.63;;
74972;SDS011;63529;56.320;43.990;2023-05-19T04:54:39;35.30;;;11.52;;
74972;SDS011;63529;56.320;43.990;2023-05-19T04:57:07;32.75;;;10.30;;
74972;SDS011;63529;56.320;43.990;2023-05-19T04:59:37;26.65;;;9.02;;
74972;SDS011;63529;56.320;43.990;2023-05-19T05:02:05;28.10;;;9.35;;
74972;SDS011;63529;56.320;43.990;2023-05-19T05:04:32;24.77;;;9.05;;
74972;SDS011;63529;56.320;43.990;2023-05-19T05:06:58;19.77;;;7.63;;
74972;SDS011;63529;56.320;43.990;2023-05-19T05:09:24;38.65;;;9.88;;
74972;SDS011;63529;56.320;43.990;2023-05-19T05:11:50;25.52;;;7.40;;
74972;SDS011;63529;56.320;43.990;2023-05-19T05:14:18;26.92;;;7.97;;
74972;SDS011;63529;56.320;43.990;2023-05-19T05:19:15;24.98;;;9.52;;
74972;SDS011;63529;56.320;43.990;2023-05-19T05:21:41;28.77;;;9.50;;
74972;SDS011;63529;56.320;43.990;2023-05-19T05:24:08;23.00;;;10.02;;
74972;SDS011;63529;56.320;43.990;2023-05-19T05:26:35;21.83;;;10.48;;
74972;SDS011;63529;56.320;43.990;2023-05-19T05:29:02;20.30;;;10.35;;
74972;SDS011;63529;56.320;43.990;2023-05-19T05:31:29;23.00;;;10.05;;
74972;SDS011;63529;56.320;43.990;2023-05-19T05:36:26;20.20;;;9.23;;
74972;SDS011;63529;56.320;43.990;2023-05-19T05:38:52;27.73;;;10.30;;
74972;SDS011;63529;56.320;43.990;2023-05-19T05:41:18;62.28;;;15.73;;
74972;SDS011;63529;56.320;43.990;2023-05-19T05:43:46;26.77;;;10.18;;
74972;SDS011;63529;56.320;43.990;2023-05-19T05:46:12;35.70;;;10.50;;
74972;SDS011;63529;56.320;43.990;2023-05-19T05:48:39;39.35;;;10.93;;
74972;SDS011;63529;56.320;43.990;2023-05-19T05:51:08;26.88;;;10.38;;
74972;SDS011;63529;56.320;43.990;2023-05-19T05:53:35;52.35;;;12.95;;
74972;SDS011;63529;56.320;43.990;2023-05-19T05:56:08;28.92;;;11.02;;
74972;SDS011;63529;56.320;43.990;2023-05-19T05:58:42;26.55;;;11.30;;
74972;SDS011;63529;56.320;43.990;2023-05-19T06:01:09;24.75;;;10.35;;
74972;SDS011;63529;56.320;43.990;2023-05-19T06:03:39;25.48;;;10.68;;
74972;SDS011;63529;56.320;43.990;2023-05-19T06:06:08;22.05;;;10.27;;
74972;SDS011;63529;56.320;43.990;2023-05-19T06:08:35;28.35;;;11.00;;
74972;SDS011;63529;56.320;43.990;2023-05-19T06:11:02;23.08;;;10.85;;
74972;SDS011;63529;56.320;43.990;2023-05-19T06:13:36;24.17;;;10.07;;
74972;SDS011;63529;56.320;43.990;2023-05-19T06:16:05;31.83;;;10.63;;
74972;SDS011;63529;56.320;43.990;2023-05-19T06:18:37;26.38;;;10.27;;
74972;SDS011;63529;56.320;43.990;2023-05-19T06:21:03;31.88;;;10.30;;
74972;SDS011;63529;56.320;43.990;2023-05-19T06:23:29;26.05;;;9.85;;
74972;SDS011;63529;56.320;43.990;2023-05-19T06:25:55;27.23;;;10.40;;
74972;SDS011;63529;56.320;43.990;2023-05-19T06:28:22;30.58;;;10.38;;
74972;SDS011;63529;56.320;43.990;2023-05-19T06:33:22;23.95;;;10.48;;
74972;SDS011;63529;56.320;43.990;2023-05-19T06:35:48;23.65;;;10.05;;
74972;SDS011;63529;56.320;43.990;2023-05-19T06:38:14;15.18;;;9.15;;
74972;SDS011;63529;56.320;43.990;2023-05-19T06:40:40;23.15;;;9.15;;
74972;SDS011;63529;56.320;43.990;2023-05-19T06:43:06;29.35;;;9.35;;
74972;SDS011;63529;56.320;43.990;2023-05-19T06:45:50;17.92;;;8.43;;
74972;SDS011;63529;56.320;43.990;2023-05-19T06:48:17;17.38;;;7.90;;
74972;SDS011;63529;56.320;43.990;2023-05-19T06:50:43;16.23;;;8.23;;
74972;SDS011;63529;56.320;43.990;2023-05-19T06:53:09;21.88;;;8.55;;
74972;SDS011;63529;56.320;43.990;2023-05-19T06:55:36;19.38;;;8.07;;
74972;SDS011;63529;56.320;43.990;2023-05-19T06:58:01;12.93;;;8.40;;
74972;SDS011;63529;56.320;43.990;2023-05-19T07:00:28;18.08;;;9.18;;
74972;SDS011;63529;56.320;43.990;2023-05-19T07:02:55;30.40;;;10.20;;
74972;SDS011;63529;56.320;43.990;2023-05-19T07:05:21;25.83;;;9.18;;
74972;SDS011;63529;56.320;43.990;2023-05-19T07:07:51;20.65;;;8.13;;
74972;SDS011;63529;56.320;43.990;2023-05-19T07:10:21;19.73;;;8.10;;
74972;SDS011;63529;56.320;43.990;2023-05-19T07:12:47;15.45;;;7.85;;
74972;SDS011;63529;56.320;43.990;2023-05-19T07:15:15;18.48;;;7.15;;
74972;SDS011;63529;56.320;43.990;2023-05-19T07:17:42;15.82;;;7.30;;
74972;SDS011;63529;56.320;43.990;2023-05-19T07:20:08;27.33;;;8.63;;
74972;SDS011;63529;56.320;43.990;2023-05-19T07:22:35;21.27;;;7.55;;
74972;SDS011;63529;56.320;43.990;2023-05-19T07:27:28;11.10;;;6.72;;
74972;SDS011;63529;56.320;43.990;2023-05-19T07:29:55;18.55;;;7.32;;
74972;SDS011;63529;56.320;43.990;2023-05-19T07:32:21;17.27;;;7.15;;
74972;SDS011;63529;56.320;43.990;2023-05-19T07:34:46;10.50;;;6.60;;
74972;SDS011;63529;56.320;43.990;2023-05-19T07:37:12;10.95;;;5.53;;
74972;SDS011;63529;56.320;43.990;2023-05-19T07:39:38;11.50;;;5.82;;
74972;SDS011;63529;56.320;43.990;2023-05-19T07:42:04;13.10;;;5.72;;
74972;SDS011;63529;56.320;43.990;2023-05-19T07:44:30;15.27;;;7.25;;
74972;SDS011;63529;56.320;43.990;2023-05-19T07:46:56;20.40;;;6.38;;
74972;SDS011;63529;56.320;43.990;2023-05-19T07:49:23;19.90;;;6.00;;
74972;SDS011;63529;56.320;43.990;2023-05-19T07:51:48;13.85;;;6.00;;
74972;SDS011;63529;56.320;43.990;2023-05-19T07:54:14;11.48;;;5.10;;
74972;SDS011;63529;56.320;43.990;2023-05-19T07:56:40;15.98;;;6.20;;
74972;SDS011;63529;56.320;43.990;2023-05-19T07:59:06;21.55;;;6.35;;
74972;SDS011;63529;56.320;43.990;2023-05-19T08:01:32;21.42;;;6.43;;
74972;SDS011;63529;56.320;43.990;2023-05-19T08:03:58;13.30;;;6.60;;
74972;SDS011;63529;56.320;43.990;2023-05-19T08:06:24;13.02;;;6.05;;
74972;SDS011;63529;56.320;43.990;2023-05-19T08:08:50;28.73;;;9.02;;
74972;SDS011;63529;56.320;43.990;2023-05-19T08:11:18;10.80;;;6.13;;
74972;SDS011;63529;56.320;43.990;2023-05-19T08:13:44;23.50;;;7.63;;
74972;SDS011;63529;56.320;43.990;2023-05-19T08:16:13;17.08;;;6.90;;
74972;SDS011;63529;56.320;43.990;2023-05-19T08:18:39;13.13;;;6.60;;
74972;SDS011;63529;56.320;43.990;2023-05-19T08:21:05;12.55;;;6.40;;
74972;SDS011;63529;56.320;43.990;2023-05-19T08:23:31;13.27;;;5.45;;
74972;SDS011;63529;56.320;43.990;2023-05-19T08:25:58;15.60;;;6.72;;
74972;SDS011;63529;56.320;43.990;2023-05-19T08:28:24;11.32;;;5.30;;
74972;SDS011;63529;56.320;43.990;2023-05-19T08:30:50;21.23;;;7.80;;
74972;SDS011;63529;56.320;43.990;2023-05-19T08:33:19;20.38;;;7.18;;
74972;SDS011;63529;56.320;43.990;2023-05-19T08:35:46;9.88;;;6.40;;
74972;SDS011;63529;56.320;43.990;2023-05-19T08:38:12;13.57;;;6.22;;
74972;SDS011;63529;56.320;43.990;2023-05-19T08:40:41;13.18;;;6.18;;
74972;SDS011;63529;56.320;43.990;2023-05-19T08:43:10;16.80;;;6.53;;
74972;SDS011;63529;56.320;43.990;2023-05-19T08:45:38;20.77;;;5.75;;
74972;SDS011;63529;56.320;43.990;2023-05-19T08:48:08;18.80;;;6.35;;
74972;SDS011;63529;56.320;43.990;2023-05-19T08:50:34;20.20;;;6.00;;
74972;SDS011;63529;56.320;43.990;2023-05-19T08:53:14;15.02;;;5.82;;
74972;SDS011;63529;56.320;43.990;2023-05-19T08:55:53;8.77;;;4.90;;
74972;SDS011;63529;56.320;43.990;2023-05-19T08:58:44;17.25;;;6.32;;
74972;SDS011;63529;56.320;43.990;2023-05-19T09:01:15;12.40;;;5.53;;
74972;SDS011;63529;56.320;43.990;2023-05-19T09:03:42;17.15;;;5.90;;
74972;SDS011;63529;56.320;43.990;2023-05-19T09:06:09;18.27;;;6.45;;
74972;SDS011;63529;56.320;43.990;2023-05-19T09:08:41;13.27;;;6.38;;
74972;SDS011;63529;56.320;43.990;2023-05-19T09:11:09;17.02;;;6.78;;
74972;SDS011;63529;56.320;43.990;2023-05-19T09:13:35;13.13;;;6.72;;
74972;SDS011;63529;56.320;43.990;2023-05-19T09:16:01;13.13;;;5.95;;
74972;SDS011;63529;56.320;43.990;2023-05-19T09:18:28;20.05;;;7.15;;
74972;SDS011;63529;56.320;43.990;2023-05-19T09:20:58;13.88;;;6.85;;
74972;SDS011;63529;56.320;43.990;2023-05-19T09:23:28;20.98;;;6.90;;
74972;SDS011;63529;56.320;43.990;2023-05-19T09:25:55;14.30;;;6.57;;
74972;SDS011;63529;56.320;43.990;2023-05-19T09:28:28;15.63;;;6.82;;
74972;SDS011;63529;56.320;43.990;2023-05-19T09:31:02;13.77;;;7.07;;
74972;SDS011;63529;56.320;43.990;2023-05-19T09:33:34;18.08;;;6.95;;
74972;SDS011;63529;56.320;43.990;2023-05-19T09:36:11;15.32;;;7.00;;
74972;SDS011;63529;56.320;43.990;2023-05-19T09:38:37;16.20;;;7.00;;
74972;SDS011;63529;56.320;43.990;2023-05-19T09:41:05;17.38;;;6.93;;
74972;SDS011;63529;56.320;43.990;2023-05-19T09:43:34;16.42;;;7.25;;
74972;SDS011;63529;56.320;43.990;2023-05-19T09:46:04;28.13;;;7.00;;
74972;SDS011;63529;56.320;43.990;2023-05-19T09:48:31;17.63;;;6.88;;
74972;SDS011;63529;56.320;43.990;2023-05-19T09:50:59;16.23;;;6.63;;
74972;SDS011;63529;56.320;43.990;2023-05-19T09:53:26;18.35;;;5.93;;
74972;SDS011;63529;56.320;43.990;2023-05-19T09:55:55;17.08;;;6.80;;
74972;SDS011;63529;56.320;43.990;2023-05-19T09:58:25;18.35;;;6.05;;
74972;SDS011;63529;56.320;43.990;2023-05-19T10:00:52;18.25;;;6.50;;
74972;SDS011;63529;56.320;43.990;2023-05-19T10:03:21;16.50;;;6.90;;
74972;SDS011;63529;56.320;43.990;2023-05-19T10:05:49;23.08;;;7.07;;
74972;SDS011;63529;56.320;43.990;2023-05-19T10:08:16;11.80;;;5.90;;
74972;SDS011;63529;56.320;43.990;2023-05-19T10:10:44;17.95;;;5.82;;
74972;SDS011;63529;56.320;43.990;2023-05-19T10:13:11;22.95;;;6.70;;
74972;SDS011;63529;56.320;43.990;2023-05-19T10:15:41;13.88;;;5.97;;
74972;SDS011;63529;56.320;43.990;2023-05-19T10:18:10;11.45;;;5.38;;
74972;SDS011;63529;56.320;43.990;2023-05-19T10:20:36;17.80;;;5.43;;
74972;SDS011;63529;56.320;43.990;2023-05-19T10:23:04;10.50;;;5.85;;
74972;SDS011;63529;56.320;43.990;2023-05-19T10:25:31;20.70;;;5.43;;
74972;SDS011;63529;56.320;43.990;2023-05-19T10:28:01;16.92;;;5.97;;
74972;SDS011;63529;56.320;43.990;2023-05-19T10:30:34;21.45;;;5.93;;
74972;SDS011;63529;56.320;43.990;2023-05-19T10:33:05;17.65;;;5.88;;
74972;SDS011;63529;56.320;43.990;2023-05-19T10:35:58;18.73;;;6.45;;
74972;SDS011;63529;56.320;43.990;2023-05-19T10:41:11;18.15;;;6.05;;
74972;SDS011;63529;56.320;43.990;2023-05-19T10:46:13;14.85;;;5.80;;
74972;SDS011;63529;56.320;43.990;2023-05-19T10:48:42;12.32;;;5.22;;
74972;SDS011;63529;56.320;43.990;2023-05-19T10:51:09;10.95;;;4.78;;
74972;SDS011;63529;56.320;43.990;2023-05-19T10:53:39;14.95;;;6.20;;
74972;SDS011;63529;56.320;43.990;2023-05-19T10:56:11;10.48;;;4.63;;
74972;SDS011;63529;56.320;43.990;2023-05-19T10:58:57;9.88;;;4.90;;
74972;SDS011;63529;56.320;43.990;2023-05-19T11:01:28;10.55;;;4.97;;
74972;SDS011;63529;56.320;43.990;2023-05-19T11:04:06;35.05;;;7.85;;
74972;SDS011;63529;56.320;43.990;2023-05-19T11:06:36;12.05;;;4.70;;
74972;SDS011;63529;56.320;43.990;2023-05-19T11:11:47;12.20;;;4.80;;
74972;SDS011;63529;56.320;43.990;2023-05-19T11:14:18;10.45;;;4.80;;
74972;SDS011;63529;56.320;43.990;2023-05-19T11:16:46;15.18;;;5.15;;
74972;SDS011;63529;56.320;43.990;2023-05-19T11:27:17;15.00;;;4.50;;
74972;SDS011;63529;56.320;43.990;2023-05-19T11:29:44;14.13;;;4.57;;
74972;SDS011;63529;56.320;43.990;2023-05-19T11:32:13;13.55;;;5.50;;
74972;SDS011;63529;56.320;43.990;2023-05-19T11:34:39;14.57;;;5.18;;
74972;SDS011;63529;56.320;43.990;2023-05-19T11:37:06;14.93;;;4.45;;
74972;SDS011;63529;56.320;43.990;2023-05-19T11:39:33;13.25;;;4.65;;
74972;SDS011;63529;56.320;43.990;2023-05-19T11:42:00;17.75;;;5.05;;
74972;SDS011;63529;56.320;43.990;2023-05-19T11:44:26;12.70;;;5.03;;
74972;SDS011;63529;56.320;43.990;2023-05-19T11:46:52;14.52;;;4.78;;
74972;SDS011;63529;56.320;43.990;2023-05-19T11:49:18;20.60;;;5.28;;
74972;SDS011;63529;56.320;43.990;2023-05-19T11:51:47;10.18;;;5.10;;
74972;SDS011;63529;56.320;43.990;2023-05-19T11:54:13;20.95;;;5.65;;
74972;SDS011;63529;56.320;43.990;2023-05-19T11:56:39;13.50;;;5.07;;
74972;SDS011;63529;56.320;43.990;2023-05-19T11:59:09;9.05;;;4.90;;
74972;SDS011;63529;56.320;43.990;2023-05-19T12:01:35;14.65;;;4.90;;
74972;SDS011;63529;56.320;43.990;2023-05-19T12:04:01;75.47;;;9.88;;
74972;SDS011;63529;56.320;43.990;2023-05-19T12:06:32;9.30;;;5.25;;
74972;SDS011;63529;56.320;43.990;2023-05-19T12:08:58;17.15;;;5.60;;
74972;SDS011;63529;56.320;43.990;2023-05-19T12:11:26;18.23;;;5.53;;
74972;SDS011;63529;56.320;43.990;2023-05-19T12:13:57;24.23;;;6.18;;
74972;SDS011;63529;56.320;43.990;2023-05-19T12:16:31;20.08;;;5.25;;
74972;SDS011;63529;56.320;43.990;2023-05-19T12:18:57;16.50;;;5.38;;
74972;SDS011;63529;56.320;43.990;2023-05-19T12:21:23;19.73;;;5.35;;
74972;SDS011;63529;56.320;43.990;2023-05-19T12:23:49;26.35;;;5.60;;
74972;SDS011;63529;56.320;43.990;2023-05-19T12:26:15;28.23;;;5.80;;
74972;SDS011;63529;56.320;43.990;2023-05-19T12:28:43;15.15;;;4.57;;
74972;SDS011;63529;56.320;43.990;2023-05-19T12:31:15;19.70;;;4.65;;
74972;SDS011;63529;56.320;43.990;2023-05-19T12:33:42;8.50;;;4.70;;
74972;SDS011;63529;56.320;43.990;2023-05-19T12:36:08;10.32;;;4.38;;
74972;SDS011;63529;56.320;43.990;2023-05-19T12:38:35;10.20;;;4.38;;
74972;SDS011;63529;56.320;43.990;2023-05-19T12:41:04;14.20;;;4.38;;
74972;SDS011;63529;56.320;43.990;2023-05-19T12:43:31;18.02;;;4.00;;
74972;SDS011;63529;56.320;43.990;2023-05-19T12:45:57;10.93;;;4.25;;
74972;SDS011;63529;56.320;43.990;2023-05-19T12:48:33;11.00;;;4.15;;
74972;SDS011;63529;56.320;43.990;2023-05-19T12:50:59;9.07;;;3.83;;
74972;SDS011;63529;56.320;43.990;2023-05-19T12:53:25;41.00;;;6.75;;
74972;SDS011;63529;56.320;43.990;2023-05-19T12:55:52;14.43;;;3.95;;
74972;SDS011;63529;56.320;43.990;2023-05-19T12:58:18;10.77;;;3.70;;
74972;SDS011;63529;56.320;43.990;2023-05-19T13:00:44;13.00;;;3.13;;
74972;SDS011;63529;56.320;43.990;2023-05-19T13:05:43;13.45;;;4.07;;
74972;SDS011;63529;56.320;43.990;2023-05-19T13:08:14;9.27;;;3.53;;
74972;SDS011;63529;56.320;43.990;2023-05-19T13:10:42;6.85;;;3.28;;
74972;SDS011;63529;56.320;43.990;2023-05-19T13:13:10;13.38;;;3.47;;
74972;SDS011;63529;56.320;43.990;2023-05-19T13:15:38;13.43;;;4.28;;
74972;SDS011;63529;56.320;43.990;2023-05-19T13:18:06;14.02;;;3.45;;
74972;SDS011;63529;56.320;43.990;2023-05-19T13:20:34;14.27;;;3.03;;
74972;SDS011;63529;56.320;43.990;2023-05-19T13:23:01;11.10;;;3.35;;
74972;SDS011;63529;56.320;43.990;2023-05-19T13:25:28;11.35;;;2.78;;
74972;SDS011;63529;56.320;43.990;2023-05-19T13:27:54;8.90;;;2.83;;
74972;SDS011;63529;56.320;43.990;2023-05-19T13:30:23;17.25;;;3.70;;
74972;SDS011;63529;56.320;43.990;2023-05-19T13:32:50;8.98;;;2.80;;
74972;SDS011;63529;56.320;43.990;2023-05-19T13:35:17;10.68;;;2.80;;
74972;SDS011;63529;56.320;43.990;2023-05-19T13:37:43;6.70;;;2.03;;
74972;SDS011;63529;56.320;43.990;2023-05-19T13:40:09;5.40;;;2.00;;
74972;SDS011;63529;56.320;43.990;2023-05-19T13:42:36;9.48;;;2.38;;
74972;SDS011;63529;56.320;43.990;2023-05-19T13:45:02;18.95;;;2.50;;
74972;SDS011;63529;56.320;43.990;2023-05-19T13:47:31;5.03;;;2.03;;
74972;SDS011;63529;56.320;43.990;2023-05-19T13:49:57;12.25;;;3.42;;
74972;SDS011;63529;56.320;43.990;2023-05-19T13:52:23;9.30;;;2.45;;
74972;SDS011;63529;56.320;43.990;2023-05-19T13:54:49;8.82;;;3.13;;
74972;SDS011;63529;56.320;43.990;2023-05-19T13:57:15;7.57;;;1.65;;
74972;SDS011;63529;56.320;43.990;2023-05-19T13:59:42;6.47;;;1.60;;
74972;SDS011;63529;56.320;43.990;2023-05-19T14:02:08;11.05;;;3.40;;
74972;SDS011;63529;56.320;43.990;2023-05-19T14:04:37;11.90;;;2.60;;
74972;SDS011;63529;56.320;43.990;2023-05-19T14:07:07;8.30;;;1.80;;
74972;SDS011;63529;56.320;43.990;2023-05-19T14:09:34;8.65;;;1.67;;
74972;SDS011;63529;56.320;43.990;2023-05-19T14:12:01;8.00;;;2.60;;
74972;SDS011;63529;56.320;43.990;2023-05-19T14:14:27;5.72;;;1.80;;
74972;SDS011;63529;56.320;43.990;2023-05-19T14:16:53;4.22;;;1.30;;
74972;SDS011;63529;56.320;43.990;2023-05-19T14:19:19;5.70;;;1.55;;
74972;SDS011;63529;56.320;43.990;2023-05-19T14:21:45;10.98;;;1.98;;
74972;SDS011;63529;56.320;43.990;2023-05-19T14:24:11;3.28;;;1.20;;
74972;SDS011;63529;56.320;43.990;2023-05-19T14:26:37;10.07;;;1.40;;
74972;SDS011;63529;56.320;43.990;2023-05-19T14:29:02;6.80;;;1.55;;
74972;SDS011;63529;56.320;43.990;2023-05-19T14:31:28;7.40;;;2.35;;
74972;SDS011;63529;56.320;43.990;2023-05-19T14:33:54;7.20;;;1.90;;
74972;SDS011;63529;56.320;43.990;2023-05-19T14:36:20;13.13;;;1.70;;
74972;SDS011;63529;56.320;43.990;2023-05-19T14:38:46;3.97;;;1.23;;
74972;SDS011;63529;56.320;43.990;2023-05-19T14:41:12;9.43;;;1.25;;
74972;SDS011;63529;56.320;43.990;2023-05-19T14:43:38;4.85;;;1.10;;
74972;SDS011;63529;56.320;43.990;2023-05-19T14:46:06;2.08;;;1.17;;
74972;SDS011;63529;56.320;43.990;2023-05-19T14:48:32;4.95;;;1.45;;
74972;SDS011;63529;56.320;43.990;2023-05-19T14:50:58;6.68;;;1.80;;
74972;SDS011;63529;56.320;43.990;2023-05-19T14:53:24;14.63;;;2.53;;
74972;SDS011;63529;56.320;43.990;2023-05-19T14:55:50;13.52;;;1.92;;
74972;SDS011;63529;56.320;43.990;2023-05-19T14:58:15;6.70;;;1.40;;
74972;SDS011;63529;56.320;43.990;2023-05-19T15:00:41;8.85;;;1.00;;
74972;SDS011;63529;56.320;43.990;2023-05-19T15:03:08;4.53;;;0.98;;
74972;SDS011;63529;56.320;43.990;2023-05-19T15:05:35;3.53;;;1.00;;
74972;SDS011;63529;56.320;43.990;2023-05-19T15:08:01;5.90;;;1.52;;
74972;SDS011;63529;56.320;43.990;2023-05-19T15:10:29;7.68;;;1.80;;
74972;SDS011;63529;56.320;43.990;2023-05-19T15:12:55;5.13;;;0.80;;
74972;SDS011;63529;56.320;43.990;2023-05-19T15:15:22;3.88;;;1.08;;